Time;durP1;ratioP1;P1;durP2;ratioP2;P2;SDS_P1;SDS_P2;PMS_P1;PMS_P2;Temp;Humidity;BMP_temperature;BMP_pressure;BME280_temperature;BME280_humidity;BME280_pressure;Samples;Min_cycle;Max_cycle;Signal;HPM_P1;HPM_P2
2021/12/04 00:00:23;;;;;;;;;2.25;2.00;;;;;9.20;83.25;99281.84;5078186;27;46470;-76
2021/12/04 00:02:51;;;;;;;;;0.75;0.75;;;;;10.10;83.15;99426.75;5061565;28;45414;-75
2021/12/04 00:05:18;;;;;;;;;3.00;3.00;;;;;9.80;83.61;99364.50;5060832;28;45409;-77
2021/12/04 00:07:44;;;;;;;;;4.25;2.00;;;;;9.75;82.68;99338.44;5066271;27;46268;-77
2021/12/04 00:10:17;;;;;;;;;2.75;1.00;;;;;10.34;83.07;99432.50;5079483;27;46368;-77
2021/12/04 00:12:43;;;;;;;;;2.50;1.25;;;;;10.07;83.70;99374.50;5079528;27;45502;-75
2021/12/04 00:15:10;;;;;;;;;2.25;2.00;;;;;10.12;83.10;99372.66;5060396;28;45469;-75
2021/12/04 00:17:36;;;;;;;;;1.00;1.00;;;;;10.42;82.72;99408.78;5059130;28;46230;-75
2021/12/04 00:20:04;;;;;;;;;1.00;1.00;;;;;10.07;82.88;99340.50;5058500;28;45410;-75
2021/12/04 00:22:30;;;;;;;;;1.00;0.75;;;;;10.45;83.74;99400.91;5076675;27;45414;-75
2021/12/04 00:24:56;;;;;;;;;0.75;0.75;;;;;9.71;83.82;99280.09;5060273;28;45453;-75
2021/12/04 00:27:21;;;;;;;;;0.00;0.00;;;;;10.40;83.24;99380.03;5059348;28;46071;-77
2021/12/04 00:29:47;;;;;;;;;0.00;0.00;;;;;10.53;83.42;99391.97;5058913;28;45531;-75
2021/12/04 00:32:15;;;;;;;;;0.00;0.00;;;;;10.15;83.58;99329.88;5058511;28;45374;-74
2021/12/04 00:34:47;;;;;;;;;0.00;0.00;;;;;9.95;83.22;99277.94;5059283;28;45580;-76
2021/12/04 00:50:54;;;;;;;;;17.75;16.75;;;;;10.66;82.71;99352.50;5062237;28;45358;-75
2021/12/04 00:53:20;;;;;;;;;10.25;10.00;;;;;10.62;82.94;99343.81;5079879;27;46036;-76
2021/12/04 00:55:46;;;;;;;;;4.00;4.00;;;;;10.26;82.46;99286.06;5061226;28;45451;-75
2021/12/04 00:58:11;;;;;;;;;1.00;1.00;;;;;10.34;82.56;99285.94;5064700;28;45563;-75
2021/12/04 01:00:39;;;;;;;;;2.50;0.00;;;;;10.27;82.52;99269.44;5065215;28;45518;-75
2021/12/04 01:03:06;;;;;;;;;0.00;0.00;;;;;10.89;82.70;99357.22;5065133;28;45353;-76
2021/12/04 01:05:32;;;;;;;;;0.00;0.00;;;;;10.72;82.44;99323.53;5061750;28;45354;-76
2021/12/04 01:07:58;;;;;;;;;0.00;0.00;;;;;11.03;82.59;99378.75;5078914;27;46422;-75
2021/12/04 01:10:23;;;;;;;;;0.00;0.00;;;;;11.05;82.40;99356.00;5063982;28;45265;-74
2021/12/04 01:12:50;;;;;;;;;0.33;0.00;;;;;10.60;82.38;99307.19;5059578;27;45543;-74
2021/12/04 01:15:16;;;;;;;;;0.00;0.00;;;;;11.10;82.14;99367.25;5058899;27;45449;-74
2021/12/04 01:17:41;;;;;;;;;0.67;0.00;;;;;11.15;82.01;99370.66;5062146;28;45412;-74
2021/12/04 01:20:07;;;;;;;;;0.00;0.00;;;;;10.57;82.54;99273.22;5075690;27;45522;-74
2021/12/04 01:22:33;;;;;;;;;0.00;0.00;;;;;10.71;82.19;99295.66;5059937;28;45777;-75
2021/12/04 01:25:00;;;;;;;;;0.00;0.00;;;;;11.11;82.26;99358.50;5073913;27;45465;-74
2021/12/04 01:27:26;;;;;;;;;0.00;0.00;;;;;10.44;82.21;99236.88;5058374;28;45430;-74
2021/12/04 01:29:52;;;;;;;;;0.00;0.00;;;;;10.40;82.37;99228.22;5073272;27;45314;-74
2021/12/04 01:32:18;;;;;;;;;0.00;0.00;;;;;11.26;82.66;99365.16;5074242;27;45422;-75
2021/12/04 01:34:44;;;;;;;;;0.00;0.00;;;;;10.64;82.40;99267.88;5062111;28;45429;-75
2021/12/04 01:37:09;;;;;;;;;0.00;0.00;;;;;10.67;82.64;99276.50;5061305;28;45342;-76
2021/12/04 01:39:35;;;;;;;;;0.00;0.00;;;;;11.21;82.61;99361.78;5059582;28;45521;-72
2021/12/04 01:42:01;;;;;;;;;0.00;0.00;;;;;10.92;82.52;99299.56;5055872;28;45864;-69
2021/12/04 01:44:26;;;;;;;;;0.00;0.00;;;;;11.34;82.18;99362.34;5055640;28;45541;-70
2021/12/04 01:46:56;;;;;;;;;0.00;0.00;;;;;11.33;82.78;99364.13;5055725;28;45463;-68
2021/12/04 01:49:22;;;;;;;;;0.00;0.00;;;;;11.38;82.42;99366.63;5088481;27;45453;-69
2021/12/04 01:51:48;;;;;;;;;0.00;0.00;;;;;11.39;82.30;99374.47;5075789;27;45444;-71
2021/12/04 01:54:14;;;;;;;;;0.00;0.00;;;;;11.35;82.15;99367.56;5076278;27;45608;-71
2021/12/04 01:56:40;;;;;;;;;0.00;0.00;;;;;11.34;82.88;99363.22;5074601;27;45419;-71
2021/12/04 01:59:12;;;;;;;;;0.00;0.00;;;;;11.44;82.50;99375.22;5075149;28;46178;-71
2021/12/04 02:01:38;;;;;;;;;0.00;0.00;;;;;11.40;82.25;99364.84;5076153;27;45378;-70
2021/12/04 02:04:04;;;;;;;;;0.00;0.00;;;;;11.45;82.66;99379.56;5074504;27;45446;-70
2021/12/04 02:06:30;;;;;;;;;0.00;0.00;;;;;11.42;82.50;99371.78;5076003;27;46200;-70
2021/12/04 02:08:55;;;;;;;;;0.00;0.00;;;;;11.45;82.49;99369.06;5075164;28;45402;-70
2021/12/04 02:11:21;;;;;;;;;0.00;0.00;;;;;11.51;82.68;99377.69;5074479;27;45477;-70
2021/12/04 02:13:47;;;;;;;;;0.00;0.00;;;;;11.33;82.28;99353.63;5076854;27;45453;-71
2021/12/04 02:16:18;;;;;;;;;0.67;0.00;;;;;11.21;81.62;99312.84;5076273;28;46149;-72
2021/12/04 02:18:44;;;;;;;;;0.00;0.00;;;;;11.57;82.22;99373.16;5080386;27;45622;-71
2021/12/04 02:21:09;;;;;;;;;0.00;0.00;;;;;11.55;82.04;99381.97;5079722;27;45972;-73
2021/12/04 02:23:35;;;;;;;;;0.00;0.00;;;;;11.62;81.84;99368.66;5077968;27;45362;-69
2021/12/04 02:26:00;;;;;;;;;0.00;0.00;;;;;11.56;81.64;99357.47;5075628;27;45963;-71
2021/12/04 02:28:26;;;;;;;;;0.67;0.00;;;;;11.65;81.44;99378.22;5076305;28;45447;-71
2021/12/04 02:30:52;;;;;;;;;0.00;0.00;;;;;11.62;81.52;99370.44;5077017;27;45471;-72
2021/12/04 02:33:18;;;;;;;;;0.00;0.00;;;;;11.69;81.31;99369.38;5080050;27;45797;-71
2021/12/04 02:35:52;;;;;;;;;0.00;0.00;;;;;11.70;81.58;99379.00;5079265;27;45958;-72
2021/12/04 02:38:23;;;;;;;;;0.00;0.00;;;;;11.73;80.94;99376.28;5076381;27;45527;-71
2021/12/04 02:40:53;;;;;;;;;0.00;0.00;;;;;11.53;80.82;99340.06;5075103;27;45486;-72
2021/12/04 02:43:20;;;;;;;;;0.00;0.00;;;;;11.77;81.05;99377.06;5076004;27;45377;-71
2021/12/04 02:45:45;;;;;;;;;0.00;0.00;;;;;11.71;81.03;99369.34;5075701;27;46156;-73
2021/12/04 02:48:12;;;;;;;;;0.00;0.00;;;;;11.69;80.87;99351.03;5075838;27;45607;-73
2021/12/04 02:50:38;;;;;;;;;0.00;0.00;;;;;11.82;80.85;99388.31;5075147;27;45354;-71
2021/12/04 02:53:04;;;;;;;;;0.00;0.00;;;;;11.79;80.86;99375.25;5061178;28;45580;-71
2021/12/04 02:55:30;;;;;;;;;0.00;0.00;;;;;11.72;80.21;99350.09;5054997;28;45366;-70
2021/12/04 02:57:55;;;;;;;;;0.00;0.00;;;;;11.26;80.30;99283.91;5055590;28;46035;-72
2021/12/04 03:00:24;;;;;;;;;0.00;0.00;;;;;11.86;80.84;99396.09;5056017;28;45574;-72
2021/12/04 03:02:51;;;;;;;;;0.00;0.00;;;;;11.74;80.71;99362.25;5056225;28;45555;-73
2021/12/04 03:05:26;;;;;;;;;0.67;0.00;;;;;11.80;80.27;99370.00;5054942;28;46242;-71
2021/12/04 03:07:54;;;;;;;;;0.00;0.00;;;;;11.86;80.07;99382.97;5057672;28;45361;-72
2021/12/04 03:10:20;;;;;;;;;0.00;0.00;;;;;11.81;80.12;99379.56;5054659;28;45469;-72
2021/12/04 03:12:46;;;;;;;;;0.00;0.00;;;;;11.87;80.09;99381.22;5055027;28;45313;-72
2021/12/04 03:15:13;;;;;;;;;0.00;0.00;;;;;11.86;80.28;99374.22;5054696;28;46107;-72
2021/12/04 03:17:39;;;;;;;;;0.00;0.00;;;;;11.41;80.20;99298.38;5054781;28;45560;-74
2021/12/04 03:20:06;;;;;;;;;0.67;0.00;;;;;11.46;80.37;99315.75;5054577;27;45534;-73
2021/12/04 03:22:31;;;;;;;;;0.00;0.00;;;;;11.37;80.36;99305.47;5058182;28;45675;-74
2021/12/04 03:24:58;;;;;;;;;0.00;0.00;;;;;11.95;80.75;99373.16;5054529;28;45923;-73
2021/12/04 03:27:26;;;;;;;;;0.67;0.00;;;;;11.94;80.63;99387.19;5055427;28;45299;-73
2021/12/04 03:30:01;;;;;;;;;0.00;0.00;;;;;11.51;80.24;99314.75;5059106;28;45460;-73
2021/12/04 03:35:11;;;;;;;;;0.00;0.00;;;;;11.45;80.77;99311.38;5059195;28;45417;-72
2021/12/04 03:41:02;;;;;;;;;0.00;0.00;;;;;11.51;80.68;99314.75;5061345;28;45448;-73
2021/12/04 03:43:29;;;;;;;;;0.00;0.00;;;;;11.20;80.57;99260.44;5057227;27;45546;-73
2021/12/04 03:46:06;;;;;;;;;1.00;0.00;;;;;11.38;80.08;99275.72;5054764;28;46507;-72
2021/12/04 03:51:00;;;;;;;;;0.00;0.00;;;;;11.32;79.53;99260.19;5056061;28;45370;-73
2021/12/04 03:53:27;;;;;;;;;0.00;0.00;;;;;11.97;79.93;99387.09;5054809;28;45290;-72
2021/12/04 03:55:53;;;;;;;;;0.00;0.00;;;;;11.53;79.19;99311.22;5052922;28;45436;-72
2021/12/04 03:58:19;;;;;;;;;0.33;0.00;;;;;11.98;79.66;99379.22;5058343;28;46216;-73
2021/12/04 04:00:45;;;;;;;;;0.00;0.00;;;;;12.00;79.02;99381.78;5054847;28;45338;-75
2021/12/04 04:03:11;;;;;;;;;0.00;0.00;;;;;12.01;78.99;99383.50;5054478;28;45702;-73
2021/12/04 04:05:37;;;;;;;;;0.00;0.00;;;;;12.02;79.41;99375.56;5054619;28;46434;-72
2021/12/04 04:08:02;;;;;;;;;0.00;0.00;;;;;11.93;78.75;99370.56;5058196;28;45417;-74
2021/12/04 04:10:28;;;;;;;;;0.00;0.00;;;;;12.05;79.15;99374.63;5074047;27;45654;-73
2021/12/04 04:12:54;;;;;;;;;0.67;0.00;;;;;12.05;78.66;99383.41;5054884;28;45358;-74
2021/12/04 04:15:21;;;;;;;;;0.00;0.00;;;;;12.06;79.22;99371.97;5054368;28;45353;-74
2021/12/04 04:17:47;;;;;;;;;0.00;0.00;;;;;12.06;79.16;99376.38;5054030;27;45377;-73
2021/12/04 04:20:18;;;;;;;;;0.67;0.00;;;;;11.55;78.82;99293.66;5059257;28;45438;-74
2021/12/04 04:22:46;;;;;;;;;0.67;0.00;;;;;11.59;79.27;99303.19;5063030;28;45299;-74
2021/12/04 04:25:13;;;;;;;;;0.00;0.00;;;;;12.03;78.77;99372.06;5057478;28;46359;-73
2021/12/04 04:27:40;;;;;;;;;0.00;0.00;;;;;12.07;79.03;99375.47;5057799;28;45501;-74
2021/12/04 04:30:14;;;;;;;;;0.00;0.00;;;;;11.43;79.42;99279.09;5057845;28;45462;-74
2021/12/04 04:32:43;;;;;;;;;0.00;0.00;;;;;11.93;79.48;99362.69;5058099;28;45385;-75
2021/12/04 04:35:14;;;;;;;;;0.00;0.00;;;;;12.04;79.77;99386.91;5076733;27;47666;-74
2021/12/04 04:57:28;;;;;;;;;0.00;0.00;;;;;11.48;78.89;99286.00;5078809;27;45927;-74
2021/12/04 04:57:43;;;;;;;;;1.00;0.00;;;;;11.48;78.58;99280.75;5074532;28;45455;-74
2021/12/04 05:00:31;;;;;;;;;0.00;0.00;;;;;11.59;78.57;99294.47;5081118;27;45463;-75
2021/12/04 05:11:20;;;;;;;;;0.00;0.00;;;;;12.00;78.67;99345.03;5082435;27;44839;-75
2021/12/04 05:13:46;;;;;;;;;0.00;0.00;;;;;11.98;78.28;99345.09;5080796;27;45417;-75
2021/12/04 05:16:17;;;;;;;;;0.00;0.00;;;;;11.25;78.58;99235.88;5083587;27;45543;-76
2021/12/04 05:18:52;;;;;;;;;0.00;0.00;;;;;11.95;78.17;99346.91;5082978;28;46136;-76
2021/12/04 05:21:19;;;;;;;;;0.00;0.00;;;;;11.57;78.14;99293.63;5083310;27;45388;-75
2021/12/04 05:23:51;;;;;;;;;0.00;0.00;;;;;11.70;78.47;99308.19;5081684;27;45392;-74
2021/12/04 05:26:25;;;;;;;;;0.33;0.00;;;;;11.81;78.60;99324.47;5080242;27;45544;-73
2021/12/04 05:28:51;;;;;;;;;0.00;0.00;;;;;11.49;78.53;99280.72;5083308;27;45677;-75
2021/12/04 05:31:20;;;;;;;;;0.00;0.00;;;;;11.33;77.99;99253.16;5078157;27;45524;-74
2021/12/04 05:33:47;;;;;;;;;0.00;0.00;;;;;11.68;78.30;99305.59;5080220;27;45502;-76
2021/12/04 05:36:14;;;;;;;;;0.00;0.00;;;;;11.94;78.11;99345.22;5080717;27;45397;-74
2021/12/04 05:38:40;;;;;;;;;0.00;0.00;;;;;11.37;77.94;99245.19;5080685;27;45433;-76
2021/12/04 05:41:06;;;;;;;;;0.00;0.00;;;;;11.91;78.17;99340.03;5082406;27;45400;-75
2021/12/04 05:43:34;;;;;;;;;0.00;0.00;;;;;11.70;78.33;99295.06;5080289;27;45523;-75
2021/12/04 05:46:15;;;;;;;;;0.00;0.00;;;;;11.31;78.11;99232.22;5078383;27;45524;-75
2021/12/04 05:56:20;;;;;;;;;0.00;0.00;;;;;11.87;78.07;99334.84;5076621;27;45345;-73
2021/12/04 05:58:48;;;;;;;;;0.00;0.00;;;;;11.62;78.38;99297.84;5075260;27;47749;-74
2021/12/04 06:01:22;;;;;;;;;0.00;0.00;;;;;11.43;78.27;99263.38;5080971;28;45313;-73
2021/12/04 06:03:48;;;;;;;;;0.00;0.00;;;;;11.31;78.36;99250.56;5079511;27;45491;-74
2021/12/04 06:06:17;;;;;;;;;0.00;0.00;;;;;11.97;78.48;99358.25;5077983;27;45405;-74
2021/12/04 06:08:43;;;;;;;;;0.00;0.00;;;;;11.60;78.45;99293.56;5077426;27;46495;-76
2021/12/04 06:11:09;;;;;;;;;0.00;0.00;;;;;11.60;78.56;99289.19;5075464;27;45545;-73
2021/12/04 06:13:35;;;;;;;;;0.67;0.00;;;;;11.96;78.24;99344.28;5077120;27;45427;-74
2021/12/04 06:16:02;;;;;;;;;0.00;0.00;;;;;11.45;78.44;99265.97;5076589;27;45487;-73
2021/12/04 06:18:27;;;;;;;;;0.00;0.00;;;;;11.37;78.28;99241.72;5076517;27;46207;-74
2021/12/04 06:23:37;;;;;;;;;0.00;0.00;;;;;12.00;77.74;99339.78;5076797;27;45761;-74
2021/12/04 06:26:06;;;;;;;;;0.00;0.00;;;;;11.99;77.98;99343.31;5077008;27;45642;-73
2021/12/04 06:28:31;;;;;;;;;0.00;0.00;;;;;11.40;77.85;99241.63;5071041;27;46516;-74
2021/12/04 06:30:59;;;;;;;;;0.00;0.00;;;;;12.00;77.82;99334.53;5065181;27;46157;-76
2021/12/04 06:33:25;;;;;;;;;0.00;0.00;;;;;12.01;77.88;99331.03;5059312;27;45432;-73
2021/12/04 06:35:52;;;;;;;;;0.00;0.00;;;;;12.00;78.13;99326.66;5056397;28;45585;-76
2021/12/04 06:38:18;;;;;;;;;0.00;0.00;;;;;11.35;77.87;99214.69;5056133;28;46346;-74
2021/12/04 06:40:46;;;;;;;;;0.00;0.00;;;;;11.57;77.66;99252.53;5056130;28;45243;-73
2021/12/04 06:43:13;;;;;;;;;0.67;0.00;;;;;11.40;78.02;99224.13;5056139;28;45432;-75
2021/12/04 06:45:43;;;;;;;;;1.67;1.67;;;;;12.02;78.24;99330.13;5057212;27;45363;-76
2021/12/04 06:48:17;;;;;;;;;0.67;0.67;;;;;12.03;78.05;99326.56;5057351;28;46402;-74
2021/12/04 06:50:50;;;;;;;;;0.00;0.00;;;;;12.03;77.47;99332.72;5057170;28;45367;-75
2021/12/04 06:55:51;;;;;;;;;0.00;0.00;;;;;11.84;78.44;99285.06;5072939;28;45464;-77
2021/12/04 06:58:18;;;;;;;;;0.00;0.00;;;;;11.85;78.62;99281.53;5074077;27;46400;-76
2021/12/04 07:00:44;;;;;;;;;0.00;0.00;;;;;12.03;78.49;99319.59;5060808;28;45476;-74
2021/12/04 07:03:10;;;;;;;;;0.00;0.00;;;;;12.04;78.91;99321.28;5072915;27;45342;-77
2021/12/04 07:05:36;;;;;;;;;0.00;0.00;;;;;11.51;78.94;99233.47;5061553;28;45485;-76
2021/12/04 07:08:04;;;;;;;;;0.00;0.00;;;;;12.02;78.51;99312.59;5077614;27;45672;-77
2021/12/04 07:10:29;;;;;;;;;1.00;0.00;;;;;11.61;79.26;99243.69;5077380;27;45479;-75
2021/12/04 07:12:55;;;;;;;;;0.00;0.00;;;;;12.04;79.14;99320.44;5079434;27;45471;-77
2021/12/04 07:15:21;;;;;;;;;1.67;0.33;;;;;12.03;79.31;99319.59;5078944;27;45545;-78
2021/12/04 07:17:47;;;;;;;;;0.00;0.00;;;;;12.03;79.08;99308.19;5076968;27;45472;-76
2021/12/04 07:20:12;;;;;;;;;0.00;0.00;;;;;11.63;79.63;99244.53;5076848;27;45700;-77
2021/12/04 07:22:38;;;;;;;;;0.00;0.00;;;;;12.02;79.73;99302.09;5077160;27;45459;-76
2021/12/04 07:25:05;;;;;;;;;2.00;0.00;;;;;11.45;79.66;99214.38;5076572;27;45506;-76
2021/12/04 07:27:31;;;;;;;;;0.00;0.00;;;;;12.03;79.95;99298.59;5076490;28;46382;-76
2021/12/04 07:29:57;;;;;;;;;0.67;0.67;;;;;12.03;79.57;99306.47;5077174;27;45386;-77
2021/12/04 07:32:25;;;;;;;;;0.67;0.67;;;;;11.64;79.59;99243.59;5075464;27;45427;-76
2021/12/04 07:34:51;;;;;;;;;0.00;0.00;;;;;11.15;79.71;99150.53;5076599;27;45697;-76
2021/12/04 07:37:17;;;;;;;;;0.33;0.33;;;;;11.98;80.20;99294.34;5075204;27;45536;-78
2021/12/04 07:39:42;;;;;;;;;0.67;0.67;;;;;11.38;80.25;99207.56;5092153;27;45424;-75
2021/12/04 07:42:08;;;;;;;;;0.00;0.00;;;;;12.02;80.13;99304.72;5076171;27;45343;-76
2021/12/04 07:44:35;;;;;;;;;0.00;0.00;;;;;11.81;80.12;99272.00;5076763;27;45496;-76
2021/12/04 07:47:02;;;;;;;;;0.00;0.00;;;;;11.82;80.22;99276.38;5076742;27;45394;-76
2021/12/04 07:49:28;;;;;;;;;0.33;0.33;;;;;12.01;80.04;99307.41;5076951;27;45455;-77
2021/12/04 07:51:54;;;;;;;;;0.67;0.67;;;;;12.02;80.68;99298.63;5078822;27;45460;-74
2021/12/04 07:54:19;;;;;;;;;0.00;0.00;;;;;11.44;80.47;99204.81;5078510;27;45589;-75
2021/12/04 07:56:45;;;;;;;;;0.00;0.00;;;;;12.03;80.04;99297.72;5080700;27;46315;-76
2021/12/04 07:59:11;;;;;;;;;0.00;0.00;;;;;11.43;80.06;99197.81;5079141;27;45443;-78
2021/12/04 08:01:36;;;;;;;;;0.00;0.00;;;;;11.16;79.96;99161.88;5079978;27;45371;-77
2021/12/04 08:04:04;;;;;;;;;1.33;0.00;;;;;12.08;79.95;99304.56;5079396;27;45666;-76
2021/12/04 08:06:32;;;;;;;;;0.00;0.00;;;;;11.62;79.83;99228.81;5080418;27;45566;-74
2021/12/04 08:08:59;;;;;;;;;0.00;0.00;;;;;11.41;79.42;99194.41;5081052;27;45534;-76
2021/12/04 08:11:28;;;;;;;;;0.00;0.00;;;;;12.04;79.34;99292.44;5083248;27;45484;-75
2021/12/04 08:13:54;;;;;;;;;0.00;0.00;;;;;11.99;79.27;99281.19;5082962;28;45246;-75
2021/12/04 08:16:24;;;;;;;;;0.00;0.00;;;;;12.03;78.77;99285.47;5078377;27;45398;-75
2021/12/04 08:18:54;;;;;;;;;0.00;0.00;;;;;12.18;78.04;99312.19;5078478;27;45404;-76
2021/12/04 08:21:21;;;;;;;;;0.00;0.00;;;;;11.74;78.13;99236.34;5077561;27;44816;-75
2021/12/04 08:23:48;;;;;;;;;0.00;0.00;;;;;11.88;78.15;99268.34;5079219;27;45427;-76
2021/12/04 08:26:14;;;;;;;;;0.00;0.00;;;;;11.76;77.79;99239.81;5076976;27;48046;-74
2021/12/04 08:28:40;;;;;;;;;0.00;0.00;;;;;12.22;77.66;99319.97;5069250;28;45425;-77
2021/12/04 08:31:05;;;;;;;;;0.00;0.00;;;;;11.76;78.06;99252.91;5070368;28;45891;-75
2021/12/04 08:33:31;;;;;;;;;0.00;0.00;;;;;12.22;77.75;99334.81;5067763;27;45304;-75
2021/12/04 08:35:57;;;;;;;;;0.00;0.00;;;;;11.51;77.23;99222.97;5074355;27;46201;-75
2021/12/04 08:38:23;;;;;;;;;0.00;0.00;;;;;12.20;77.22;99340.13;5059698;28;45455;-73
2021/12/04 08:40:49;;;;;;;;;0.00;0.00;;;;;11.79;77.46;99265.09;5058711;28;45262;-76
2021/12/04 08:43:15;;;;;;;;;0.00;0.00;;;;;12.11;76.79;99315.91;5074595;27;45325;-75
2021/12/04 08:45:42;;;;;;;;;0.00;0.00;;;;;12.19;76.77;99346.25;5057434;28;45705;-75
2021/12/04 08:48:11;;;;;;;;;0.00;0.00;;;;;12.19;76.60;99338.38;5058548;28;45485;-76
2021/12/04 08:50:37;;;;;;;;;0.00;0.00;;;;;12.23;76.10;99357.56;5058951;28;45419;-77
2021/12/04 08:53:04;;;;;;;;;0.33;0.00;;;;;11.83;75.49;99280.72;5058507;28;45232;-76
2021/12/04 08:55:35;;;;;;;;;0.00;0.00;;;;;12.06;74.68;99313.41;5084951;27;47846;-76
2021/12/04 08:58:02;;;;;;;;;0.67;0.00;;;;;12.13;74.51;99330.69;5065631;27;45468;-76
2021/12/04 09:00:34;;;;;;;;;0.00;0.00;;;;;12.34;74.54;99371.25;5067906;27;45382;-78
2021/12/04 09:03:01;;;;;;;;;0.00;0.00;;;;;12.33;74.21;99371.28;5073728;27;45539;-77
2021/12/04 09:05:28;;;;;;;;;0.00;0.00;;;;;11.88;73.63;99325.22;5063943;28;46264;-78
2021/12/04 09:07:53;;;;;;;;;0.00;0.00;;;;;12.19;73.61;99367.25;5078223;27;45291;-72
2021/12/04 09:10:21;;;;;;;;;0.00;0.00;;;;;12.05;74.35;99357.16;5070996;27;45551;-76
2021/12/04 09:12:49;;;;;;;;;0.00;0.00;;;;;11.84;72.74;99290.31;5078717;28;45459;-77
2021/12/04 09:15:19;;;;;;;;;0.00;0.00;;;;;12.27;71.89;99373.19;5078045;27;45824;-75
2021/12/04 09:17:45;;;;;;;;;0.67;0.00;;;;;11.81;70.99;99298.25;5079496;27;45575;-76
2021/12/04 09:20:14;;;;;;;;;0.00;0.00;;;;;11.66;69.97;99262.78;5078174;27;45349;-77
2021/12/04 09:22:40;;;;;;;;;0.00;0.00;;;;;12.83;69.92;99408.44;5078524;27;45459;-74
2021/12/04 09:25:11;;;;;;;;;1.00;0.00;;;;;13.09;67.86;99419.03;5069002;27;46658;-77
2021/12/04 10:02:46;;;;;;;;;0.00;0.00;;;;;20.59;43.43;99368.84;5064225;28;45679;-75
2021/12/04 10:05:35;;;;;;;;;0.00;0.00;;;;;19.24;44.29;99319.97;5063457;28;45422;-75
2021/12/04 10:16:56;;;;;;;;;2.00;0.00;;;;;16.44;51.48;99466.94;5064492;28;45204;-76
2021/12/04 10:19:31;;;;;;;;;2.00;0.00;;;;;15.74;52.45;99458.34;5065097;27;45374;-76
2021/12/04 10:33:14;;;;;;;;;0.00;0.00;;;;;13.61;55.99;99400.00;5062270;28;45219;-73
2021/12/04 10:35:40;;;;;;;;;0.67;0.00;;;;;13.24;56.22;99366.91;5056385;28;45402;-75
2021/12/04 10:38:11;;;;;;;;;0.00;0.00;;;;;13.37;56.89;99428.78;5056044;28;45738;-73
2021/12/04 10:40:42;;;;;;;;;1.00;0.00;;;;;13.46;56.89;99478.47;5056955;28;46469;-73
2021/12/04 10:43:14;;;;;;;;;2.33;0.00;;;;;13.56;57.43;99508.84;5057987;28;45471;-76
2021/12/04 10:45:48;;;;;;;;;0.00;0.00;;;;;13.46;57.78;99494.25;5071478;27;45394;-74
2021/12/04 10:48:21;;;;;;;;;0.00;0.00;;;;;13.10;58.35;99451.47;5056016;28;45920;-75
2021/12/04 10:53:46;;;;;;;;;0.00;0.00;;;;;13.07;58.76;99491.81;5056109;28;45524;-74
2021/12/04 11:04:51;;;;;;;;;0.00;0.00;;;;;12.48;60.06;99447.03;5058084;28;45568;-75
2021/12/04 11:38:02;;;;;;;;;2.33;1.00;;;;;11.78;65.57;99523.94;5057914;28;45314;-76
2021/12/04 11:40:48;;;;;;;;;0.67;0.67;;;;;11.73;65.58;99540.69;5057891;28;45323;-74
2021/12/04 11:43:18;;;;;;;;;7.50;3.75;;;;;11.92;65.99;99589.25;5063809;28;45443;-74
2021/12/04 11:46:02;;;;;;;;;4.00;2.50;;;;;11.87;66.29;99599.00;5062267;28;45696;-73
2021/12/04 11:48:38;;;;;;;;;1.67;1.67;;;;;11.81;65.97;99601.69;5059576;28;45460;-75
2021/12/04 11:51:10;;;;;;;;;1.33;1.33;;;;;11.75;65.53;99580.84;5074977;27;45499;-73
2021/12/04 11:53:36;;;;;;;;;1.00;1.00;;;;;11.64;65.28;99575.81;5061703;28;45242;-74
2021/12/04 11:56:02;;;;;;;;;1.67;0.67;;;;;10.63;65.28;99423.22;5057955;28;45603;-74
2021/12/04 11:58:39;;;;;;;;;0.67;0.67;;;;;11.51;65.63;99574.34;5058410;28;45468;-74
2021/12/04 12:01:09;;;;;;;;;3.00;1.75;;;;;11.42;65.70;99568.41;5058934;28;45626;-74
2021/12/04 12:03:36;;;;;;;;;0.50;0.50;;;;;11.43;66.20;99569.25;5075341;27;46296;-74
2021/12/04 12:06:08;;;;;;;;;3.75;1.50;;;;;11.45;66.18;99564.84;5074325;27;47146;-74
2021/12/04 12:08:41;;;;;;;;;8.50;6.50;;;;;11.70;65.77;99609.81;5060236;28;45306;-74
2021/12/04 12:11:11;;;;;;;;;3.25;3.25;;;;;11.28;64.86;99530.25;5062632;28;45482;-73
2021/12/04 12:13:45;;;;;;;;;1.25;1.25;;;;;11.53;65.34;99599.66;5074848;27;45613;-73
2021/12/04 12:16:14;;;;;;;;;3.00;3.00;;;;;11.74;66.90;99619.31;5057671;28;46487;-71
2021/12/04 12:18:57;;;;;;;;;1.75;1.75;;;;;11.82;66.52;99593.81;5057096;28;45778;-71
2021/12/04 12:21:31;;;;;;;;;1.67;0.00;;;;;11.99;68.37;99601.34;5057652;28;44859;-73
2021/12/04 12:27:19;;;;;;;;;1.67;1.33;;;;;12.56;65.64;99639.44;5058392;28;45926;-73
2021/12/04 12:38:40;;;;;;;;;7.33;2.00;;;;;12.99;62.50;99680.44;5056914;28;45342;-68
2021/12/04 12:41:37;;;;;;;;;8.00;2.00;;;;;12.98;60.48;99683.97;5071899;27;45809;-74
2021/12/04 12:44:03;;;;;;;;;7.33;3.00;;;;;12.94;58.70;99685.81;5057599;28;45380;-76
2021/12/04 12:46:52;;;;;;;;;3.33;1.00;;;;;12.88;58.02;99699.09;5057718;28;45478;-74
2021/12/04 12:49:20;;;;;;;;;1.67;1.67;;;;;12.25;58.34;99607.78;5060902;28;45695;-75
2021/12/04 12:51:58;;;;;;;;;4.00;2.00;;;;;12.79;57.83;99701.06;5058042;28;45918;-76
2021/12/04 12:54:31;;;;;;;;;4.33;2.00;;;;;12.08;57.84;99597.66;5058653;28;45447;-77
2021/12/04 12:57:22;;;;;;;;;3.33;3.00;;;;;12.47;57.92;99661.50;5058757;28;45712;-76
2021/12/04 13:11:42;;;;;;;;;3.00;2.75;;;;;11.27;56.55;99578.31;5057801;28;45751;-72
2021/12/04 13:14:13;;;;;;;;;2.67;1.00;;;;;12.06;54.62;99717.56;5057253;28;45500;-75
2021/12/04 13:16:43;;;;;;;;;6.00;2.00;;;;;11.96;55.27;99729.09;5057629;28;45477;-75
2021/12/04 13:19:12;;;;;;;;;5.67;1.33;;;;;11.92;55.33;99724.84;5058555;28;45424;-76
2021/12/04 13:21:41;;;;;;;;;4.75;3.00;;;;;11.88;55.06;99724.03;5057442;28;45473;-77
2021/12/04 13:24:10;;;;;;;;;4.00;4.00;;;;;11.36;55.72;99633.19;5057033;28;45504;-74
2021/12/04 13:26:39;;;;;;;;;5.75;2.75;;;;;11.82;55.62;99730.22;5055674;28;45481;-75
2021/12/04 13:29:07;;;;;;;;;3.00;1.50;;;;;11.58;55.99;99686.09;5060089;28;45256;-75
2021/12/04 13:31:37;;;;;;;;;3.50;2.25;;;;;11.34;56.88;99638.47;5056861;28;45552;-74
2021/12/04 13:34:07;;;;;;;;;2.00;2.00;;;;;11.83;56.55;99723.22;5057317;28;45460;-74
2021/12/04 13:36:33;;;;;;;;;5.50;3.50;;;;;11.59;55.70;99706.19;5057072;28;45650;-78
2021/12/04 13:39:04;;;;;;;;;2.00;2.00;;;;;11.56;54.42;99687.91;5057099;28;45527;-75
2021/12/04 13:41:31;;;;;;;;;3.25;1.50;;;;;11.56;53.59;99704.50;5056698;28;45518;-77
2021/12/04 13:44:00;;;;;;;;;4.00;1.00;;;;;11.62;52.41;99720.09;5056991;28;45322;-75
2021/12/04 13:46:26;;;;;;;;;2.25;1.25;;;;;11.74;53.30;99729.50;5057355;28;45373;-76
2021/12/04 13:49:00;;;;;;;;;4.00;1.33;;;;;11.31;53.01;99659.50;5058519;28;45488;-75
2021/12/04 13:51:26;;;;;;;;;4.00;2.33;;;;;10.66;52.45;99554.13;5072790;28;46915;-75
2021/12/04 13:53:52;;;;;;;;;3.25;2.00;;;;;11.18;52.77;99637.03;5057017;28;45485;-75
2021/12/04 13:56:20;;;;;;;;;4.50;1.25;;;;;11.34;52.63;99669.94;5073157;27;45699;-78
2021/12/04 13:58:55;;;;;;;;;2.50;2.00;;;;;11.68;53.17;99727.84;5060387;28;45334;-76
2021/12/04 14:01:22;;;;;;;;;5.25;1.75;;;;;11.46;52.47;99685.44;5064592;28;46284;-75
2021/12/04 14:03:55;;;;;;;;;3.50;1.75;;;;;11.51;52.44;99700.19;5062801;28;45401;-75
2021/12/04 14:06:20;;;;;;;;;3.75;3.00;;;;;11.10;52.46;99650.25;5062810;28;45380;-75
2021/12/04 14:08:58;;;;;;;;;2.00;0.25;;;;;11.46;52.97;99695.06;5062533;28;45239;-74
2021/12/04 14:11:28;;;;;;;;;3.00;2.00;;;;;11.09;52.23;99624.09;5062307;28;45477;-74
2021/12/04 14:13:54;;;;;;;;;2.50;1.50;;;;;10.83;52.60;99596.59;5081385;27;45716;-75
2021/12/04 14:16:24;;;;;;;;;2.25;0.75;;;;;11.35;53.78;99686.53;5066832;28;45404;-75
2021/12/04 14:18:50;;;;;;;;;4.25;1.25;;;;;10.86;53.74;99617.47;5066805;28;44811;-77
2021/12/04 14:21:16;;;;;;;;;3.25;1.75;;;;;11.30;52.31;99704.97;5063700;28;46502;-76
2021/12/04 14:23:47;;;;;;;;;3.75;2.50;;;;;11.40;52.09;99732.72;5065039;28;45436;-75
2021/12/04 14:26:15;;;;;;;;;2.50;2.00;;;;;10.98;52.28;99679.28;5066803;28;45149;-75
2021/12/04 14:28:44;;;;;;;;;0.50;0.50;;;;;11.55;53.01;99773.53;5063058;28;45333;-77
2021/12/04 14:31:12;;;;;;;;;5.00;2.50;;;;;10.70;53.18;99635.22;5057945;28;45581;-76
2021/12/04 14:33:40;;;;;;;;;3.75;1.75;;;;;10.82;52.16;99663.84;5062425;28;45436;-78
2021/12/04 14:36:06;;;;;;;;;1.25;1.25;;;;;11.06;51.81;99698.38;5060885;28;45460;-74
2021/12/04 14:38:33;;;;;;;;;1.50;1.50;;;;;11.52;52.27;99770.13;5058265;28;45330;-74
2021/12/04 14:41:03;;;;;;;;;3.25;2.00;;;;;11.41;52.76;99781.69;5057696;28;46310;-74